首页
METAR-TAF:

METAR-TAF

机场 :

Laurinburg-Maxton Airport

Maxton, 北卡罗来纳州, 美国

纬度: 34-47-29N, 经度: 079-22-05W, 海拔: 67米

当前天气观测

该预报发布于18分钟前的20:52 UTC
风速13节,风向东北
温度 13°C
湿度 54%
气压 1014 hPa
能見度: 16.1公里
天空无云

METAR: KMEB 172052Z AUTO 04013KT 10SM CLR 13/04 A2994 RMK AO2 SLP136 T01330044 56018

时间: 16:10 (21:10 UTC)


TAF: 丢失

超过4000个机场的气象观测和天气预报(METAR&TAF报告)。

可查询的气象台以黄色和红色小点在地图上表示。

将鼠标移到小点上方,可查看气象台名称。

然后点击查看天气观测和预报。

如需切换地图:点击带黑十字的绿色按钮放大地图;点击带横线的绿色按钮缩小地图;或者点击绿色箭头查看邻近地区的地图。


METAR-TAF: